sensor_id;sensor_type;location;lat;lon;timestamp;P1;durP1;ratioP1;P2;durP2;ratioP2
27979;SDS011;15315;50.836;4.430;2022-12-24T00:01:51;32.85;;;5.53;;
27979;SDS011;15315;50.836;4.430;2022-12-24T00:11:51;48.22;;;6.40;;
27979;SDS011;15315;50.836;4.430;2022-12-24T00:21:51;38.05;;;6.18;;
27979;SDS011;15315;50.836;4.430;2022-12-24T00:31:52;40.28;;;6.05;;
27979;SDS011;15315;50.836;4.430;2022-12-24T00:41:52;43.88;;;5.97;;
27979;SDS011;15315;50.836;4.430;2022-12-24T00:51:53;54.08;;;6.78;;
27979;SDS011;15315;50.836;4.430;2022-12-24T01:01:53;58.08;;;6.88;;
27979;SDS011;15315;50.836;4.430;2022-12-24T01:11:53;49.13;;;6.63;;
27979;SDS011;15315;50.836;4.430;2022-12-24T01:21:54;49.22;;;5.95;;
27979;SDS011;15315;50.836;4.430;2022-12-24T01:31:54;20.33;;;3.35;;
27979;SDS011;15315;50.836;4.430;2022-12-24T01:41:54;28.35;;;3.78;;
27979;SDS011;15315;50.836;4.430;2022-12-24T01:52:16;59.08;;;7.22;;
27979;SDS011;15315;50.836;4.430;2022-12-24T02:02:19;67.78;;;8.18;;
27979;SDS011;15315;50.836;4.430;2022-12-24T02:12:20;60.65;;;6.97;;
27979;SDS011;15315;50.836;4.430;2022-12-24T02:32:47;61.38;;;7.50;;
27979;SDS011;15315;50.836;4.430;2022-12-24T02:43:14;47.00;;;6.15;;
27979;SDS011;15315;50.836;4.430;2022-12-24T02:53:19;40.35;;;6.50;;
27979;SDS011;15315;50.836;4.430;2022-12-24T03:13:58;47.72;;;7.55;;
27979;SDS011;15315;50.836;4.430;2022-12-24T03:23:59;45.70;;;7.57;;
27979;SDS011;15315;50.836;4.430;2022-12-24T03:34:00;46.67;;;7.03;;
27979;SDS011;15315;50.836;4.430;2022-12-24T03:44:01;45.53;;;7.05;;
27979;SDS011;15315;50.836;4.430;2022-12-24T03:54:01;57.05;;;7.10;;
27979;SDS011;15315;50.836;4.430;2022-12-24T04:04:02;66.28;;;7.30;;
27979;SDS011;15315;50.836;4.430;2022-12-24T04:14:02;50.42;;;7.05;;
27979;SDS011;15315;50.836;4.430;2022-12-24T04:24:03;47.53;;;5.97;;
27979;SDS011;15315;50.836;4.430;2022-12-24T04:34:03;52.38;;;6.82;;
27979;SDS011;15315;50.836;4.430;2022-12-24T04:44:04;60.55;;;7.38;;
27979;SDS011;15315;50.836;4.430;2022-12-24T04:54:04;50.00;;;6.07;;
27979;SDS011;15315;50.836;4.430;2022-12-24T05:04:04;62.92;;;7.50;;
27979;SDS011;15315;50.836;4.430;2022-12-24T05:14:05;49.30;;;6.50;;
27979;SDS011;15315;50.836;4.430;2022-12-24T05:24:06;49.88;;;7.15;;
27979;SDS011;15315;50.836;4.430;2022-12-24T05:34:25;51.75;;;6.60;;
27979;SDS011;15315;50.836;4.430;2022-12-24T05:44:26;51.90;;;6.75;;
27979;SDS011;15315;50.836;4.430;2022-12-24T05:54:26;53.05;;;7.00;;
27979;SDS011;15315;50.836;4.430;2022-12-24T06:04:27;55.00;;;6.38;;
27979;SDS011;15315;50.836;4.430;2022-12-24T06:14:27;60.30;;;6.47;;
27979;SDS011;15315;50.836;4.430;2022-12-24T06:24:27;49.22;;;8.15;;
27979;SDS011;15315;50.836;4.430;2022-12-24T06:34:28;55.33;;;7.22;;
27979;SDS011;15315;50.836;4.430;2022-12-24T06:44:28;55.78;;;7.00;;
27979;SDS011;15315;50.836;4.430;2022-12-24T06:54:28;57.17;;;8.23;;
27979;SDS011;15315;50.836;4.430;2022-12-24T07:04:29;48.65;;;7.15;;
27979;SDS011;15315;50.836;4.430;2022-12-24T07:14:29;49.28;;;6.45;;
27979;SDS011;15315;50.836;4.430;2022-12-24T07:24:30;46.28;;;6.57;;
27979;SDS011;15315;50.836;4.430;2022-12-24T07:34:30;59.65;;;6.68;;
27979;SDS011;15315;50.836;4.430;2022-12-24T07:44:30;52.88;;;7.95;;
27979;SDS011;15315;50.836;4.430;2022-12-24T07:54:31;118.50;;;45.80;;
27979;SDS011;15315;50.836;4.430;2022-12-24T08:04:31;52.40;;;7.97;;
27979;SDS011;15315;50.836;4.430;2022-12-24T08:14:35;46.17;;;6.53;;
27979;SDS011;15315;50.836;4.430;2022-12-24T08:24:35;50.90;;;7.60;;
27979;SDS011;15315;50.836;4.430;2022-12-24T08:34:36;59.10;;;7.60;;
27979;SDS011;15315;50.836;4.430;2022-12-24T08:44:36;42.45;;;6.57;;
27979;SDS011;15315;50.836;4.430;2022-12-24T08:54:37;55.60;;;8.13;;
27979;SDS011;15315;50.836;4.430;2022-12-24T09:04:37;47.35;;;6.40;;
27979;SDS011;15315;50.836;4.430;2022-12-24T09:14:41;50.67;;;7.00;;
27979;SDS011;15315;50.836;4.430;2022-12-24T09:24:41;52.47;;;7.28;;
27979;SDS011;15315;50.836;4.430;2022-12-24T09:34:42;50.83;;;7.70;;
27979;SDS011;15315;50.836;4.430;2022-12-24T09:45:05;47.00;;;7.35;;
27979;SDS011;15315;50.836;4.430;2022-12-24T10:36:23;46.22;;;7.10;;
27979;SDS011;15315;50.836;4.430;2022-12-24T10:56:39;46.00;;;7.05;;
27979;SDS011;15315;50.836;4.430;2022-12-24T11:16:53;42.00;;;7.03;;
27979;SDS011;15315;50.836;4.430;2022-12-24T11:26:54;43.35;;;6.78;;
27979;SDS011;15315;50.836;4.430;2022-12-24T11:37:23;49.92;;;7.47;;
27979;SDS011;15315;50.836;4.430;2022-12-24T11:47:34;51.33;;;6.88;;
27979;SDS011;15315;50.836;4.430;2022-12-24T11:57:40;46.05;;;7.28;;
27979;SDS011;15315;50.836;4.430;2022-12-24T12:07:49;44.30;;;7.07;;
27979;SDS011;15315;50.836;4.430;2022-12-24T12:27:55;46.03;;;7.13;;
27979;SDS011;15315;50.836;4.430;2022-12-24T12:38:00;44.03;;;6.38;;
27979;SDS011;15315;50.836;4.430;2022-12-24T12:58:44;43.22;;;7.78;;
27979;SDS011;15315;50.836;4.430;2022-12-24T13:30:30;36.30;;;6.60;;
27979;SDS011;15315;50.836;4.430;2022-12-24T13:50:17;30.95;;;5.70;;
27979;SDS011;15315;50.836;4.430;2022-12-24T14:10:55;40.90;;;6.55;;
27979;SDS011;15315;50.836;4.430;2022-12-24T14:20:58;37.05;;;6.07;;
27979;SDS011;15315;50.836;4.430;2022-12-24T14:31:01;35.33;;;6.18;;
27979;SDS011;15315;50.836;4.430;2022-12-24T15:01:35;44.58;;;5.90;;
27979;SDS011;15315;50.836;4.430;2022-12-24T15:11:36;38.17;;;6.55;;
27979;SDS011;15315;50.836;4.430;2022-12-24T15:21:37;47.40;;;6.95;;
27979;SDS011;15315;50.836;4.430;2022-12-24T15:31:41;42.03;;;7.57;;
27979;SDS011;15315;50.836;4.430;2022-12-24T15:41:43;44.47;;;7.07;;
27979;SDS011;15315;50.836;4.430;2022-12-24T15:52:09;50.20;;;8.35;;
27979;SDS011;15315;50.836;4.430;2022-12-24T16:12:35;51.03;;;8.13;;
27979;SDS011;15315;50.836;4.430;2022-12-24T16:22:35;40.97;;;8.00;;
27979;SDS011;15315;50.836;4.430;2022-12-24T16:32:39;49.13;;;9.73;;
27979;SDS011;15315;50.836;4.430;2022-12-24T16:42:41;45.15;;;8.65;;
27979;SDS011;15315;50.836;4.430;2022-12-24T16:53:00;53.30;;;8.30;;
27979;SDS011;15315;50.836;4.430;2022-12-24T17:03:00;44.83;;;9.07;;
27979;SDS011;15315;50.836;4.430;2022-12-24T17:13:01;44.75;;;10.05;;
27979;SDS011;15315;50.836;4.430;2022-12-24T17:23:01;44.53;;;9.25;;
27979;SDS011;15315;50.836;4.430;2022-12-24T17:33:02;41.53;;;9.85;;
27979;SDS011;15315;50.836;4.430;2022-12-24T17:43:03;42.10;;;9.77;;
27979;SDS011;15315;50.836;4.430;2022-12-24T17:53:03;53.23;;;13.00;;
27979;SDS011;15315;50.836;4.430;2022-12-24T18:03:04;55.65;;;10.88;;
27979;SDS011;15315;50.836;4.430;2022-12-24T18:13:05;43.58;;;10.38;;
27979;SDS011;15315;50.836;4.430;2022-12-24T18:23:06;50.58;;;10.48;;
27979;SDS011;15315;50.836;4.430;2022-12-24T18:33:07;46.22;;;10.98;;
27979;SDS011;15315;50.836;4.430;2022-12-24T18:43:07;46.03;;;10.30;;
27979;SDS011;15315;50.836;4.430;2022-12-24T18:53:08;49.38;;;13.13;;
27979;SDS011;15315;50.836;4.430;2022-12-24T19:03:10;43.15;;;10.45;;
27979;SDS011;15315;50.836;4.430;2022-12-24T19:13:10;46.00;;;11.27;;
27979;SDS011;15315;50.836;4.430;2022-12-24T19:23:11;39.30;;;11.02;;
27979;SDS011;15315;50.836;4.430;2022-12-24T19:33:11;41.75;;;9.70;;
27979;SDS011;15315;50.836;4.430;2022-12-24T19:43:11;36.22;;;9.40;;
27979;SDS011;15315;50.836;4.430;2022-12-24T19:53:12;34.72;;;9.90;;
27979;SDS011;15315;50.836;4.430;2022-12-24T20:03:12;37.63;;;8.70;;
27979;SDS011;15315;50.836;4.430;2022-12-24T20:13:13;38.47;;;8.95;;
27979;SDS011;15315;50.836;4.430;2022-12-24T20:23:13;37.92;;;8.77;;
27979;SDS011;15315;50.836;4.430;2022-12-24T20:33:13;33.10;;;8.48;;
27979;SDS011;15315;50.836;4.430;2022-12-24T20:43:14;40.17;;;9.02;;
27979;SDS011;15315;50.836;4.430;2022-12-24T20:53:14;36.35;;;8.88;;
27979;SDS011;15315;50.836;4.430;2022-12-24T21:03:15;38.95;;;9.15;;
27979;SDS011;15315;50.836;4.430;2022-12-24T21:13:16;30.35;;;7.43;;
27979;SDS011;15315;50.836;4.430;2022-12-24T21:23:17;36.67;;;8.32;;
27979;SDS011;15315;50.836;4.430;2022-12-24T21:33:17;31.48;;;7.38;;
27979;SDS011;15315;50.836;4.430;2022-12-24T21:43:17;24.85;;;7.47;;
27979;SDS011;15315;50.836;4.430;2022-12-24T21:53:18;23.60;;;7.22;;
27979;SDS011;15315;50.836;4.430;2022-12-24T22:03:37;27.83;;;7.25;;
27979;SDS011;15315;50.836;4.430;2022-12-24T22:13:37;28.65;;;7.57;;
27979;SDS011;15315;50.836;4.430;2022-12-24T22:23:38;25.33;;;9.05;;
27979;SDS011;15315;50.836;4.430;2022-12-24T22:33:38;22.52;;;7.82;;
27979;SDS011;15315;50.836;4.430;2022-12-24T22:43:39;27.80;;;8.52;;
27979;SDS011;15315;50.836;4.430;2022-12-24T22:53:39;23.85;;;7.45;;
27979;SDS011;15315;50.836;4.430;2022-12-24T23:03:40;22.70;;;7.88;;
27979;SDS011;15315;50.836;4.430;2022-12-24T23:13:42;21.55;;;7.35;;
27979;SDS011;15315;50.836;4.430;2022-12-24T23:24:02;20.30;;;6.32;;
27979;SDS011;15315;50.836;4.430;2022-12-24T23:34:03;20.75;;;6.32;;
27979;SDS011;15315;50.836;4.430;2022-12-24T23:44:03;16.55;;;5.13;;
27979;SDS011;15315;50.836;4.430;2022-12-24T23:54:04;15.57;;;4.38;;
